Terminal Aerodrome Forecast
Issued by NWS

Home | Current Version | Previous Version | Text Only | Print | Product List | Glossary On
Versions: 1 2 3 4 5 6 7 8 9 10 11 12
000
FTUS44 KOUN 202345
TAFWWR
TAF
KWWR 202345Z 2100/2124 15015G22KT P6SM VCTS SCT050CB OVC100CB
      TEMPO 2100/2102 25017G25KT 3SM TSRA FEW008 OVC040CB
     FM210300 17010KT P6SM VCSH SCT007 BKN080
     FM210800 24007KT P6SM BKN007
     FM211200 36010KT P6SM BKN007
     FM211500 36013KT P6SM SCT035=

USA.gov is the U.S. government's official web portal to all federal, state and local government web resources and services.